createdAt,value
2018-03-07T00:01:23.905Z,4.10
2018-03-07T00:03:52.219Z,4.10
2018-03-07T00:06:20.516Z,4.10
2018-03-07T00:08:48.784Z,4.10
2018-03-07T00:11:17.111Z,4.20
2018-03-07T00:13:45.415Z,4.20
2018-03-07T00:16:13.715Z,4.20
2018-03-07T00:18:42.020Z,4.20
2018-03-07T00:21:10.298Z,4.20
2018-03-07T00:23:38.621Z,4.20
2018-03-07T00:26:07.052Z,4.20
2018-03-07T00:28:35.354Z,4.20
2018-03-07T00:31:03.641Z,4.20
2018-03-07T00:33:31.909Z,4.20
2018-03-07T00:36:00.202Z,4.20
2018-03-07T00:38:28.509Z,4.20
2018-03-07T00:40:56.812Z,4.30
2018-03-07T00:43:25.086Z,4.30
2018-03-07T00:45:53.375Z,4.30
2018-03-07T00:48:21.698Z,4.30
2018-03-07T00:50:49.970Z,4.30
2018-03-07T00:53:18.286Z,4.30
2018-03-07T00:55:46.252Z,4.30
2018-03-07T00:58:14.584Z,4.30
2018-03-07T01:00:42.881Z,4.40
2018-03-07T01:03:11.933Z,4.40
2018-03-07T01:05:40.200Z,4.30
2018-03-07T01:08:08.487Z,4.30
2018-03-07T01:10:36.756Z,4.30
2018-03-07T01:13:05.073Z,4.30
2018-03-07T01:15:33.363Z,4.20
2018-03-07T01:18:01.414Z,4.30
2018-03-07T01:20:29.688Z,4.30
2018-03-07T01:22:57.980Z,4.30
2018-03-07T01:25:26.267Z,4.30
2018-03-07T01:27:54.581Z,4.30
2018-03-07T01:30:23.641Z,4.30
2018-03-07T01:32:51.908Z,4.20
2018-03-07T01:35:20.218Z,4.30
2018-03-07T01:37:48.495Z,4.30
2018-03-07T01:40:16.787Z,4.30
2018-03-07T01:42:45.056Z,4.30
2018-03-07T01:45:13.361Z,4.40
2018-03-07T01:47:42.461Z,4.40
2018-03-07T01:50:10.751Z,4.40
2018-03-07T01:52:39.806Z,4.50
2018-03-07T01:55:08.100Z,4.50
2018-03-07T01:57:36.390Z,4.50
2018-03-07T02:00:04.357Z,4.50
2018-03-07T02:02:32.630Z,4.50
2018-03-07T02:05:00.935Z,4.50
2018-03-07T02:07:30.013Z,4.50
2018-03-07T02:09:57.952Z,4.50
2018-03-07T02:12:26.239Z,4.50
2018-03-07T02:14:54.522Z,4.50
2018-03-07T02:17:22.815Z,4.50
2018-03-07T02:19:51.113Z,4.50
2018-03-07T02:22:19.401Z,4.50
2018-03-07T02:24:47.701Z,4.50
2018-03-07T02:27:15.969Z,4.50
2018-03-07T02:29:44.267Z,4.50
2018-03-07T02:32:12.568Z,4.60
2018-03-07T02:34:40.874Z,4.60
2018-03-07T02:37:09.170Z,4.50
2018-03-07T02:39:37.474Z,4.50
2018-03-07T02:42:05.753Z,4.50
2018-03-07T02:44:34.044Z,4.60
2018-03-07T02:47:02.345Z,4.60
2018-03-07T02:49:31.408Z,4.50
2018-03-07T02:51:59.710Z,4.50
2018-03-07T02:54:28.009Z,4.50
2018-03-07T02:56:56.270Z,4.80
2018-03-07T02:59:24.766Z,4.80
2018-03-07T03:01:53.819Z,4.80
2018-03-07T03:04:22.121Z,4.80
2018-03-07T03:06:50.394Z,4.90
2018-03-07T03:09:18.726Z,4.90
2018-03-07T03:11:47.028Z,4.80
2018-03-07T03:14:15.315Z,4.80
2018-03-07T03:16:43.603Z,4.70
2018-03-07T03:19:11.892Z,4.70
2018-03-07T03:21:40.191Z,4.80
2018-03-07T03:24:08.473Z,4.80
2018-03-07T03:26:36.760Z,4.70
2018-03-07T03:29:05.049Z,4.80
2018-03-07T03:31:34.171Z,4.80
2018-03-07T03:34:03.235Z,4.80
2018-03-07T03:36:31.549Z,4.70
2018-03-07T03:39:00.646Z,4.70
2018-03-07T03:41:28.927Z,4.70
2018-03-07T03:43:57.217Z,4.70
2018-03-07T03:46:25.522Z,4.70
2018-03-07T03:48:53.823Z,4.80
2018-03-07T03:51:22.094Z,4.80
2018-03-07T03:53:50.407Z,4.70
2018-03-07T03:56:18.749Z,4.80
2018-03-07T03:58:47.031Z,4.70
2018-03-07T04:01:15.349Z,4.80
2018-03-07T04:03:43.624Z,4.70
2018-03-07T04:06:11.943Z,4.70
2018-03-07T04:08:40.988Z,4.60
2018-03-07T04:11:09.264Z,4.60
2018-03-07T04:13:37.538Z,4.60
2018-03-07T04:16:05.823Z,4.60
2018-03-07T04:18:34.112Z,4.60
2018-03-07T04:21:02.389Z,4.50
2018-03-07T04:23:30.702Z,4.50
2018-03-07T04:25:58.996Z,4.50
2018-03-07T04:28:27.281Z,4.50
2018-03-07T04:30:55.581Z,4.30
2018-03-07T04:33:23.901Z,4.30
2018-03-07T04:35:52.169Z,4.20
2018-03-07T04:38:20.440Z,4.20
2018-03-07T04:40:48.759Z,4.20
2018-03-07T04:43:17.033Z,4.10
2018-03-07T04:45:45.356Z,4.00
2018-03-07T04:48:14.409Z,3.90
2018-03-07T04:50:42.685Z,3.80
2018-03-07T04:53:10.989Z,3.80
2018-03-07T04:55:40.770Z,3.80
2018-03-07T04:58:09.051Z,3.80
2018-03-07T05:00:37.356Z,3.80
2018-03-07T05:03:05.320Z,3.70
2018-03-07T05:05:33.636Z,3.50
2018-03-07T05:08:01.953Z,3.40
2018-03-07T05:10:30.463Z,3.40
2018-03-07T05:12:59.721Z,3.40
2018-03-07T05:15:27.997Z,3.40
2018-03-07T05:17:56.269Z,3.30
2018-03-07T05:20:24.546Z,3.10
2018-03-07T05:22:52.836Z,3.00
2018-03-07T05:25:21.132Z,2.80
2018-03-07T05:27:49.397Z,2.70
2018-03-07T05:30:17.743Z,2.70
2018-03-07T05:32:45.836Z,2.60
2018-03-07T05:35:14.146Z,2.50
2018-03-07T05:37:42.439Z,2.50
2018-03-07T05:40:10.919Z,2.50
2018-03-07T05:42:39.963Z,2.70
2018-03-07T05:45:08.248Z,2.70
2018-03-07T05:47:36.563Z,2.90
2018-03-07T05:50:04.537Z,2.90
2018-03-07T05:52:32.829Z,2.80
2018-03-07T05:55:01.919Z,2.70
2018-03-07T05:57:30.207Z,2.70
2018-03-07T06:00:01.035Z,2.60
2018-03-07T06:02:29.356Z,2.60
2018-03-07T06:04:57.636Z,2.60
2018-03-07T06:07:25.946Z,2.50
2018-03-07T06:09:54.238Z,2.70
2018-03-07T06:12:22.538Z,2.70
2018-03-07T06:14:50.847Z,2.70
2018-03-07T06:17:19.927Z,2.60
2018-03-07T06:19:48.207Z,2.60
2018-03-07T06:22:16.529Z,2.60
2018-03-07T06:24:44.823Z,2.70
2018-03-07T06:27:13.148Z,2.80
2018-03-07T06:29:41.441Z,2.70
2018-03-07T06:32:09.735Z,2.60
2018-03-07T06:34:38.797Z,2.50
2018-03-07T06:37:07.084Z,2.50
2018-03-07T06:39:35.366Z,2.60
2018-03-07T06:42:03.650Z,2.70
2018-03-07T06:44:31.914Z,2.70
2018-03-07T06:47:00.209Z,2.70
2018-03-07T06:49:28.508Z,2.70
2018-03-07T06:51:56.814Z,2.60
2018-03-07T06:54:25.098Z,2.80
2018-03-07T06:56:53.374Z,2.80
2018-03-07T06:59:21.661Z,2.90
2018-03-07T07:01:49.936Z,3.00
2018-03-07T07:04:18.246Z,3.10
2018-03-07T07:06:46.509Z,3.20
2018-03-07T07:09:14.797Z,3.40
2018-03-07T07:11:43.080Z,3.60
2018-03-07T07:14:11.406Z,3.60
2018-03-07T07:16:39.684Z,3.70
2018-03-07T07:19:07.978Z,3.80
2018-03-07T07:21:36.433Z,3.90
2018-03-07T07:24:04.732Z,4.00
2018-03-07T07:26:33.014Z,4.10
2018-03-07T07:29:01.313Z,4.10
2018-03-07T07:31:29.608Z,4.20
2018-03-07T07:33:57.897Z,4.30
2018-03-07T07:36:26.165Z,4.30
2018-03-07T07:38:54.446Z,4.40
2018-03-07T07:41:22.713Z,4.40
2018-03-07T07:43:51.027Z,4.40
2018-03-07T07:46:19.319Z,4.50
2018-03-07T07:48:48.196Z,4.70
2018-03-07T07:51:16.281Z,4.60
2018-03-07T07:53:45.324Z,4.90
2018-03-07T07:56:13.600Z,4.90
2018-03-07T07:58:41.881Z,5.10
2018-03-07T08:01:10.173Z,5.20
2018-03-07T08:03:38.437Z,5.40
2018-03-07T08:06:06.716Z,5.50
2018-03-07T08:08:35.244Z,5.60
2018-03-07T08:11:03.508Z,5.70
2018-03-07T08:13:31.806Z,5.70
2018-03-07T08:16:00.080Z,5.90
2018-03-07T08:18:28.378Z,6.10
2018-03-07T08:20:56.642Z,5.90
2018-03-07T08:23:24.696Z,6.10
2018-03-07T08:25:52.982Z,6.40
2018-03-07T08:28:21.295Z,6.40
2018-03-07T08:30:49.376Z,6.40
2018-03-07T08:33:17.339Z,6.50
2018-03-07T08:35:45.625Z,6.50
2018-03-07T08:38:14.119Z,6.50
2018-03-07T08:40:42.462Z,6.50
2018-03-07T08:43:10.743Z,6.40
2018-03-07T08:45:39.018Z,6.50
2018-03-07T08:48:07.336Z,6.70
2018-03-07T08:50:35.654Z,6.80
2018-03-07T08:53:03.940Z,6.90
2018-03-07T08:55:32.228Z,6.80
2018-03-07T08:58:00.509Z,6.90
2018-03-07T09:00:29.002Z,6.80
2018-03-07T09:02:57.296Z,6.80
2018-03-07T09:05:25.576Z,6.80
2018-03-07T09:07:53.868Z,6.90
2018-03-07T09:10:22.146Z,6.70
2018-03-07T09:12:50.446Z,6.80
2018-03-07T09:15:18.735Z,7.00
2018-03-07T09:17:47.069Z,7.10
2018-03-07T09:20:15.348Z,7.40
2018-03-07T09:22:43.611Z,7.50
2018-03-07T09:25:11.903Z,7.50
2018-03-07T09:27:40.164Z,7.80
2018-03-07T09:30:08.112Z,7.80
2018-03-07T09:32:36.509Z,7.80
2018-03-07T09:35:05.554Z,8.00
2018-03-07T09:37:33.823Z,8.00
2018-03-07T09:40:02.145Z,8.10
2018-03-07T09:42:31.937Z,8.40
2018-03-07T09:45:00.252Z,8.30
2018-03-07T09:47:28.588Z,8.60
2018-03-07T09:49:56.873Z,8.50
2018-03-07T09:52:25.165Z,8.50
2018-03-07T09:54:53.468Z,8.60
2018-03-07T09:57:21.753Z,8.50
2018-03-07T09:59:50.062Z,8.70
2018-03-07T10:02:19.126Z,9.00
2018-03-07T10:04:47.572Z,9.00
2018-03-07T10:07:15.925Z,9.20
2018-03-07T10:09:44.205Z,9.40
2018-03-07T10:12:12.488Z,9.40
2018-03-07T10:14:40.784Z,9.50
2018-03-07T10:17:09.526Z,9.60
2018-03-07T10:19:37.810Z,9.60
2018-03-07T10:22:06.099Z,9.80
2018-03-07T10:24:35.203Z,9.70
2018-03-07T10:27:03.473Z,9.70
2018-03-07T10:29:31.764Z,9.70
2018-03-07T10:32:00.059Z,9.80
2018-03-07T10:34:28.333Z,9.80
2018-03-07T10:36:56.659Z,9.80
2018-03-07T10:39:24.916Z,9.80
2018-03-07T10:41:54.647Z,9.70
2018-03-07T10:44:22.938Z,9.70
2018-03-07T10:46:51.232Z,9.60
2018-03-07T10:49:19.523Z,9.60
2018-03-07T10:51:47.835Z,9.60
2018-03-07T10:54:15.957Z,9.60
2018-03-07T10:56:44.227Z,9.60
2018-03-07T10:59:13.386Z,9.40
2018-03-07T11:01:41.677Z,9.40
2018-03-07T11:04:11.031Z,9.40
2018-03-07T11:06:39.322Z,9.40
2018-03-07T11:09:07.600Z,9.60
2018-03-07T11:11:35.567Z,9.60
2018-03-07T11:14:03.853Z,9.50
2018-03-07T11:16:32.165Z,9.50
2018-03-07T11:19:00.474Z,9.40
2018-03-07T11:21:28.941Z,9.60
2018-03-07T11:23:57.228Z,9.80
2018-03-07T11:26:25.648Z,9.70
2018-03-07T11:28:53.962Z,9.70
2018-03-07T11:31:22.256Z,9.70
2018-03-07T11:33:50.576Z,9.60
2018-03-07T11:36:18.833Z,9.40
2018-03-07T11:38:47.137Z,9.40
2018-03-07T11:41:16.215Z,9.40
2018-03-07T11:43:44.493Z,9.40
2018-03-07T11:46:13.561Z,9.50
2018-03-07T11:48:41.872Z,9.50
2018-03-07T11:51:10.182Z,9.60
2018-03-07T11:53:38.465Z,9.60
2018-03-07T11:56:07.590Z,9.70
2018-03-07T11:58:36.014Z,9.70
2018-03-07T12:01:04.320Z,9.70
2018-03-07T12:03:32.620Z,9.70
2018-03-07T12:06:00.924Z,9.80
2018-03-07T12:08:29.203Z,9.70
2018-03-07T12:10:57.512Z,9.90
2018-03-07T12:16:02.823Z,10.00
2018-03-07T12:18:32.005Z,10.20
2018-03-07T12:21:00.350Z,10.20
2018-03-07T12:23:28.665Z,10.10
2018-03-07T12:25:56.957Z,10.40
2018-03-07T12:28:25.242Z,10.40
2018-03-07T12:30:53.540Z,10.30
2018-03-07T12:33:21.813Z,10.10
2018-03-07T12:35:50.737Z,10.10
2018-03-07T12:38:19.030Z,10.00
2018-03-07T12:40:47.337Z,9.80
2018-03-07T12:43:15.624Z,9.80
2018-03-07T12:45:43.896Z,9.70
2018-03-07T12:48:11.866Z,9.80
2018-03-07T12:50:40.162Z,10.00
2018-03-07T12:53:08.449Z,9.90
2018-03-07T12:55:36.731Z,9.90
2018-03-07T12:58:05.023Z,9.90
2018-03-07T13:00:33.311Z,9.90
2018-03-07T13:03:02.357Z,9.80
2018-03-07T13:05:30.654Z,9.80
2018-03-07T13:07:58.936Z,9.80
2018-03-07T13:10:27.243Z,9.80
2018-03-07T13:12:55.532Z,9.80
2018-03-07T13:15:23.808Z,9.90
2018-03-07T13:17:52.081Z,9.90
2018-03-07T13:20:20.404Z,10.00
2018-03-07T13:22:48.697Z,9.90
2018-03-07T13:25:17.000Z,9.90
2018-03-07T13:27:45.274Z,9.90
2018-03-07T13:30:13.592Z,9.90
2018-03-07T13:32:42.046Z,9.80
2018-03-07T13:35:10.333Z,9.70
2018-03-07T13:37:39.382Z,10.50
2018-03-07T13:40:07.878Z,10.40
2018-03-07T13:42:35.971Z,10.70
2018-03-07T13:45:03.740Z,10.50
2018-03-07T13:47:31.999Z,10.30
2018-03-07T13:50:00.291Z,10.30
2018-03-07T13:52:28.581Z,10.20
2018-03-07T13:54:56.865Z,10.30
2018-03-07T13:57:25.139Z,10.30
2018-03-07T13:59:53.467Z,10.50
2018-03-07T14:02:21.752Z,10.80
2018-03-07T14:04:50.237Z,11.00
2018-03-07T14:07:18.532Z,10.90
2018-03-07T14:09:46.491Z,11.10
2018-03-07T14:12:14.771Z,11.10
2018-03-07T14:14:43.082Z,11.20
2018-03-07T14:17:11.378Z,11.00
2018-03-07T14:19:39.674Z,11.10
2018-03-07T14:22:07.949Z,10.80
2018-03-07T14:24:36.236Z,11.00
2018-03-07T14:27:04.189Z,11.00
2018-03-07T14:29:32.481Z,11.10
2018-03-07T14:32:00.769Z,11.00
2018-03-07T14:34:29.036Z,10.60
2018-03-07T14:36:57.330Z,10.70
2018-03-07T14:39:25.616Z,10.50
2018-03-07T14:41:53.919Z,10.60
2018-03-07T14:44:22.203Z,10.70
2018-03-07T14:46:51.271Z,10.30
2018-03-07T14:49:19.553Z,10.30
2018-03-07T14:51:47.850Z,10.00
2018-03-07T14:54:16.122Z,10.20
2018-03-07T14:56:44.426Z,10.30
2018-03-07T14:59:12.699Z,10.30
2018-03-07T15:01:40.973Z,10.40
2018-03-07T15:04:09.274Z,10.40
2018-03-07T15:06:37.910Z,10.20
2018-03-07T15:09:06.346Z,10.10
2018-03-07T15:11:34.668Z,10.10
2018-03-07T15:14:03.710Z,9.50
2018-03-07T15:16:31.981Z,9.60
2018-03-07T15:19:00.263Z,9.60
2018-03-07T15:21:31.758Z,9.50
2018-03-07T15:24:00.046Z,9.40
2018-03-07T15:26:28.859Z,9.30
2018-03-07T15:28:57.157Z,9.30
2018-03-07T15:31:25.440Z,9.20
2018-03-07T15:33:53.753Z,9.10
2018-03-07T15:36:22.052Z,8.90
2018-03-07T15:38:50.353Z,8.80
2018-03-07T15:41:18.430Z,8.80
2018-03-07T15:43:47.501Z,8.80
2018-03-07T15:46:15.797Z,8.80
2018-03-07T15:48:44.117Z,8.70
2018-03-07T15:51:13.228Z,8.40
2018-03-07T15:53:41.577Z,8.40
2018-03-07T15:56:09.889Z,8.40
2018-03-07T15:58:38.166Z,8.30
2018-03-07T16:01:07.307Z,8.20
2018-03-07T16:03:35.645Z,8.10
2018-03-07T16:06:04.785Z,8.20
2018-03-07T16:08:33.142Z,8.10
2018-03-07T16:11:01.485Z,8.00
2018-03-07T16:13:29.766Z,8.00
2018-03-07T16:15:58.110Z,8.00
2018-03-07T16:18:26.409Z,8.00
2018-03-07T16:20:56.209Z,7.90
2018-03-07T16:25:59.343Z,7.80
2018-03-07T16:28:27.660Z,7.80
2018-03-07T16:30:56.757Z,7.70
2018-03-07T16:33:25.039Z,7.60
2018-03-07T16:35:53.325Z,7.70
2018-03-07T16:38:21.744Z,7.60
2018-03-07T16:40:49.845Z,7.50
2018-03-07T16:43:18.919Z,7.40
2018-03-07T16:45:47.377Z,7.40
2018-03-07T16:48:15.710Z,7.40
2018-03-07T16:50:43.991Z,7.30
2018-03-07T16:53:12.266Z,7.30
2018-03-07T16:55:40.589Z,7.20
2018-03-07T16:58:09.659Z,7.10
2018-03-07T17:00:37.945Z,7.10
2018-03-07T17:03:06.226Z,7.10
2018-03-07T17:05:34.528Z,7.10
2018-03-07T17:08:02.830Z,7.00
2018-03-07T17:10:31.117Z,7.00
2018-03-07T17:12:59.412Z,7.00
2018-03-07T17:15:27.688Z,7.00
2018-03-07T17:17:55.999Z,6.90
2018-03-07T17:20:24.305Z,6.90
2018-03-07T17:22:52.556Z,6.90
2018-03-07T17:25:20.976Z,6.80
2018-03-07T17:27:49.276Z,6.80
2018-03-07T17:30:18.322Z,6.70
2018-03-07T17:32:46.745Z,6.70
2018-03-07T17:35:15.047Z,6.70
2018-03-07T17:37:43.323Z,6.70
2018-03-07T17:40:11.605Z,6.60
2018-03-07T17:42:39.882Z,6.60
2018-03-07T17:45:08.186Z,6.50
2018-03-07T17:47:37.550Z,6.30
2018-03-07T17:50:06.642Z,6.30
2018-03-07T17:52:34.974Z,6.20
2018-03-07T17:55:03.277Z,6.20
2018-03-07T17:57:31.652Z,6.10
2018-03-07T18:00:01.320Z,6.10
2018-03-07T18:02:29.641Z,6.00
2018-03-07T18:04:57.942Z,6.00
2018-03-07T18:07:26.263Z,6.00
2018-03-07T18:09:55.360Z,5.90
2018-03-07T18:12:23.687Z,5.90
2018-03-07T18:14:51.977Z,5.80
2018-03-07T18:17:20.266Z,5.80
2018-03-07T18:19:48.541Z,5.80
2018-03-07T18:22:16.865Z,5.80
2018-03-07T18:24:45.203Z,5.70
2018-03-07T18:27:13.522Z,5.70
2018-03-07T18:29:42.426Z,5.70
2018-03-07T18:32:10.944Z,5.60
2018-03-07T18:34:38.929Z,5.60
2018-03-07T18:37:07.255Z,5.50
2018-03-07T18:39:36.409Z,5.50
2018-03-07T18:42:04.383Z,5.50
2018-03-07T18:44:32.662Z,5.50
2018-03-07T18:47:00.949Z,5.40
2018-03-07T18:49:29.266Z,5.40
2018-03-07T18:52:01.423Z,5.40
2018-03-07T18:54:29.707Z,5.40
2018-03-07T18:57:01.041Z,5.40
2018-03-07T18:59:31.810Z,5.40
2018-03-07T19:02:00.074Z,5.40
2018-03-07T19:04:28.492Z,5.40
2018-03-07T19:06:56.783Z,5.40
2018-03-07T19:09:24.880Z,5.30
2018-03-07T19:11:53.182Z,5.30
2018-03-07T19:14:21.486Z,5.30
2018-03-07T19:16:49.790Z,5.30
2018-03-07T19:19:18.116Z,5.30
2018-03-07T19:21:46.415Z,5.30
2018-03-07T19:24:14.776Z,5.30
2018-03-07T19:26:43.034Z,5.30
2018-03-07T19:29:12.158Z,5.20
2018-03-07T19:31:40.696Z,5.20
2018-03-07T19:34:09.117Z,5.20
2018-03-07T19:36:37.438Z,5.20
2018-03-07T19:39:05.166Z,5.20
2018-03-07T19:41:33.469Z,5.10
2018-03-07T19:44:01.773Z,5.10
2018-03-07T19:46:30.073Z,5.10
2018-03-07T19:48:58.422Z,5.10
2018-03-07T19:51:26.740Z,5.10
2018-03-07T19:53:55.161Z,5.10
2018-03-07T19:56:23.532Z,5.10
2018-03-07T19:58:52.650Z,5.10
2018-03-07T20:01:20.976Z,5.10
2018-03-07T20:03:49.378Z,5.10
2018-03-07T20:06:17.734Z,5.10
2018-03-07T20:08:46.106Z,5.10
2018-03-07T20:11:14.409Z,5.20
2018-03-07T20:13:42.784Z,5.20
2018-03-07T20:16:11.114Z,5.20
2018-03-07T20:18:39.414Z,5.10
2018-03-07T20:21:07.546Z,5.10
2018-03-07T20:23:35.863Z,5.10
2018-03-07T20:26:04.978Z,5.10
2018-03-07T20:28:33.266Z,5.00
2018-03-07T20:31:01.572Z,5.00
2018-03-07T20:33:29.886Z,5.00
2018-03-07T20:35:58.225Z,5.00
2018-03-07T20:38:26.537Z,5.00
2018-03-07T20:40:54.845Z,5.00
2018-03-07T20:43:23.117Z,5.00
2018-03-07T20:45:51.402Z,5.00
2018-03-07T20:48:20.495Z,4.90
2018-03-07T20:50:48.786Z,4.90
2018-03-07T20:53:17.844Z,4.90
2018-03-07T20:55:46.165Z,4.90
2018-03-07T20:58:14.470Z,4.90
2018-03-07T21:00:42.788Z,4.90
2018-03-07T21:03:11.102Z,4.90
2018-03-07T21:05:39.386Z,4.70
2018-03-07T21:08:07.670Z,4.70
2018-03-07T21:10:36.743Z,4.80
2018-03-07T21:13:06.638Z,4.80
2018-03-07T21:15:34.946Z,4.80
2018-03-07T21:18:03.234Z,4.80
2018-03-07T21:20:31.537Z,4.80
2018-03-07T21:23:00.623Z,4.80
2018-03-07T21:25:28.873Z,4.80
2018-03-07T21:27:57.200Z,4.80
2018-03-07T21:30:25.486Z,4.70
2018-03-07T21:32:53.592Z,4.70
2018-03-07T21:35:21.882Z,4.70
2018-03-07T21:37:50.161Z,4.70
2018-03-07T21:40:18.452Z,4.70
2018-03-07T21:42:46.734Z,4.60
2018-03-07T21:45:15.073Z,4.60
2018-03-07T21:47:43.364Z,4.60
2018-03-07T21:50:11.660Z,4.60
2018-03-07T21:52:39.928Z,4.60
2018-03-07T21:55:08.281Z,4.60
2018-03-07T21:57:36.605Z,4.60
2018-03-07T22:00:04.904Z,4.70
2018-03-07T22:02:33.205Z,4.70
2018-03-07T22:05:01.537Z,4.70
2018-03-07T22:07:29.934Z,4.70
2018-03-07T22:09:58.218Z,4.70
2018-03-07T22:12:26.541Z,4.70
2018-03-07T22:14:54.860Z,4.70
2018-03-07T22:17:23.169Z,4.70
2018-03-07T22:19:51.635Z,4.70
2018-03-07T22:22:19.939Z,4.70
2018-03-07T22:24:48.429Z,4.70
2018-03-07T22:27:16.721Z,4.70
2018-03-07T22:29:45.032Z,4.70
2018-03-07T22:32:14.130Z,4.70
2018-03-07T22:34:43.243Z,4.70
2018-03-07T22:37:11.555Z,4.70
2018-03-07T22:39:39.892Z,4.70
2018-03-07T22:42:08.263Z,4.70
2018-03-07T22:44:36.590Z,4.80
2018-03-07T22:47:04.906Z,4.70
2018-03-07T22:49:33.216Z,4.70
2018-03-07T22:52:01.201Z,4.70
2018-03-07T22:54:29.507Z,4.80
2018-03-07T22:56:57.803Z,4.70
2018-03-07T22:59:26.139Z,4.70
2018-03-07T23:01:54.444Z,4.70
2018-03-07T23:04:23.510Z,4.70
2018-03-07T23:06:51.806Z,4.70
2018-03-07T23:09:20.093Z,4.70
2018-03-07T23:11:48.400Z,4.70
2018-03-07T23:14:16.712Z,4.60
2018-03-07T23:16:44.831Z,4.60
2018-03-07T23:19:13.112Z,4.60
2018-03-07T23:21:41.427Z,4.60
2018-03-07T23:24:10.674Z,4.50
2018-03-07T23:26:38.977Z,4.50
2018-03-07T23:29:07.305Z,4.40
2018-03-07T23:31:35.612Z,4.40
2018-03-07T23:34:03.933Z,4.30
2018-03-07T23:36:32.404Z,4.20
2018-03-07T23:39:00.703Z,4.20
2018-03-07T23:41:28.978Z,4.20
2018-03-07T23:43:57.267Z,4.10
2018-03-07T23:46:25.561Z,4.00
2018-03-07T23:48:53.866Z,3.90
2018-03-07T23:51:22.175Z,3.90
2018-03-07T23:53:50.482Z,3.80
2018-03-07T23:56:18.767Z,3.80
2018-03-07T23:58:47.830Z,3.70
